createdAt,value
2022-11-18T00:00:08.810Z,17.55
2022-11-18T00:02:38.101Z,17.85
2022-11-18T00:05:07.494Z,16.27
2022-11-18T00:07:36.718Z,17.25
2022-11-18T00:10:05.811Z,16.17
2022-11-18T00:12:54.554Z,14.82
2022-11-18T00:15:27.587Z,16.40
2022-11-18T00:17:59.674Z,16.13
2022-11-18T00:20:28.797Z,15.30
2022-11-18T00:22:57.960Z,15.93
2022-11-18T00:25:27.097Z,17.42
2022-11-18T00:27:56.370Z,16.77
2022-11-18T00:30:26.396Z,16.77
2022-11-18T00:32:55.243Z,15.43
2022-11-18T00:35:24.280Z,14.57
2022-11-18T00:37:53.047Z,14.93
2022-11-18T00:40:22.189Z,14.45
2022-11-18T00:42:54.913Z,13.65
2022-11-18T00:45:24.651Z,15.45
2022-11-18T00:47:53.777Z,15.32
2022-11-18T00:50:22.711Z,12.73
2022-11-18T00:52:51.516Z,9.40
2022-11-18T00:55:20.569Z,10.73
2022-11-18T00:57:49.755Z,16.92
2022-11-18T01:00:19.345Z,10.90
2022-11-18T01:02:48.250Z,11.25
2022-11-18T01:05:17.376Z,10.30
2022-11-18T01:07:47.419Z,11.65
2022-11-18T01:10:16.526Z,11.43
2022-11-18T01:13:05.310Z,11.13
2022-11-18T01:15:41.735Z,10.75
2022-11-18T01:18:11.158Z,10.70
2022-11-18T01:20:40.573Z,10.65
2022-11-18T01:23:09.617Z,9.68
2022-11-18T01:25:40.448Z,9.60
2022-11-18T01:28:10.184Z,7.72
2022-11-18T01:30:40.948Z,8.48
2022-11-18T01:33:10.387Z,9.82
2022-11-18T01:35:41.379Z,7.28
2022-11-18T01:38:13.012Z,7.78
2022-11-18T01:40:42.741Z,6.85
2022-11-18T01:43:16.861Z,7.68
2022-11-18T01:45:47.930Z,7.22
2022-11-18T01:48:36.923Z,7.28
2022-11-18T01:51:11.346Z,6.95
2022-11-18T01:53:44.563Z,7.20
2022-11-18T01:56:18.894Z,6.63
2022-11-18T01:58:59.783Z,7.80
2022-11-18T02:01:29.112Z,8.43
2022-11-18T02:03:58.123Z,8.40
2022-11-18T02:06:26.970Z,7.80
2022-11-18T02:08:57.774Z,6.78
2022-11-18T02:11:47.769Z,6.00
2022-11-18T02:14:17.076Z,5.95
2022-11-18T02:17:06.947Z,5.50
2022-11-18T02:19:52.416Z,4.38
2022-11-18T02:22:32.832Z,4.07
2022-11-18T02:25:15.616Z,5.18
2022-11-18T02:28:20.284Z,3.30
2022-11-18T02:30:59.741Z,4.70
2022-11-18T02:33:31.959Z,4.30
2022-11-18T02:36:09.335Z,3.65
2022-11-18T02:38:46.873Z,3.70
2022-11-18T02:41:21.528Z,3.90
2022-11-18T02:43:57.190Z,4.13
2022-11-18T02:46:37.766Z,4.20
2022-11-18T02:49:14.427Z,4.45
2022-11-18T02:51:45.000Z,4.50
2022-11-18T02:54:15.204Z,4.05
2022-11-18T02:56:45.547Z,4.50
2022-11-18T02:59:19.320Z,4.80
2022-11-18T03:01:49.126Z,5.18
2022-11-18T03:04:19.613Z,5.35
2022-11-18T03:07:14.650Z,4.82
2022-11-18T03:09:48.775Z,4.53
2022-11-18T03:12:25.850Z,4.97
2022-11-18T03:15:02.594Z,5.15
2022-11-18T03:18:06.947Z,4.82
2022-11-18T03:20:47.049Z,5.18
2022-11-18T03:23:30.031Z,4.60
2022-11-18T03:26:07.304Z,4.82
2022-11-18T03:28:57.294Z,4.97
2022-11-18T03:31:39.899Z,4.47
2022-11-18T03:34:11.794Z,5.30
2022-11-18T03:36:47.731Z,4.43
2022-11-18T03:39:22.071Z,5.90
2022-11-18T03:41:55.469Z,5.60
2022-11-18T03:44:31.722Z,5.30
2022-11-18T03:47:07.502Z,4.78
2022-11-18T03:49:42.900Z,5.57
2022-11-18T03:52:32.791Z,5.90
2022-11-18T03:55:05.816Z,5.43
2022-11-18T03:57:53.106Z,5.70
2022-11-18T04:00:22.688Z,5.93
2022-11-18T04:02:53.076Z,6.18
2022-11-18T04:05:22.461Z,5.82
2022-11-18T04:07:53.161Z,6.22
2022-11-18T04:10:36.686Z,5.97
2022-11-18T04:13:11.729Z,5.85
2022-11-18T04:15:43.650Z,6.07
2022-11-18T04:18:13.201Z,5.43
2022-11-18T04:20:54.771Z,5.93
2022-11-18T04:23:24.477Z,6.07
2022-11-18T04:25:53.491Z,5.93
2022-11-18T04:28:22.365Z,6.47
2022-11-18T04:30:52.091Z,6.78
2022-11-18T04:33:21.265Z,6.43
2022-11-18T04:35:51.448Z,5.70
2022-11-18T04:38:22.118Z,6.70
2022-11-18T04:40:51.148Z,5.88
2022-11-18T04:43:20.300Z,6.18
2022-11-18T04:45:49.619Z,5.90
2022-11-18T04:48:20.618Z,5.35
2022-11-18T04:50:49.862Z,5.30
2022-11-18T04:53:18.811Z,5.30
2022-11-18T04:55:47.595Z,5.95
2022-11-18T04:58:16.381Z,7.05
2022-11-18T05:00:45.219Z,5.43
2022-11-18T05:03:14.135Z,5.43
2022-11-18T05:05:44.585Z,5.10
2022-11-18T05:08:13.734Z,5.03
2022-11-18T05:10:42.925Z,5.20
2022-11-18T05:13:14.194Z,5.07
2022-11-18T05:15:43.015Z,5.10
2022-11-18T05:18:13.126Z,3.88
2022-11-18T05:20:41.974Z,4.38
2022-11-18T05:23:11.197Z,4.10
2022-11-18T05:25:40.045Z,4.35
2022-11-18T05:28:08.856Z,4.25
2022-11-18T05:30:38.030Z,5.47
2022-11-18T05:33:06.896Z,4.97
2022-11-18T05:35:38.813Z,3.92
2022-11-18T05:38:07.669Z,4.85
2022-11-18T05:40:36.834Z,4.90
2022-11-18T05:43:13.125Z,5.38
2022-11-18T05:45:42.903Z,4.65
2022-11-18T05:48:12.247Z,5.22
2022-11-18T05:50:41.592Z,4.75
2022-11-18T05:53:11.029Z,4.28
2022-11-18T05:55:54.885Z,4.25
2022-11-18T05:58:24.334Z,3.35
2022-11-18T06:00:56.780Z,3.75
2022-11-18T06:03:30.949Z,4.25
2022-11-18T06:06:03.972Z,4.10
2022-11-18T06:11:04.525Z,3.83
2022-11-18T06:13:42.330Z,4.13
2022-11-18T06:16:13.828Z,4.07
2022-11-18T06:18:43.599Z,3.72
2022-11-18T06:21:13.232Z,4.45
2022-11-18T06:23:43.839Z,4.47
2022-11-18T06:26:14.940Z,3.67
2022-11-18T06:28:45.103Z,3.75
2022-11-18T06:31:14.304Z,4.57
2022-11-18T06:33:43.805Z,4.25
2022-11-18T06:36:12.812Z,3.13
2022-11-18T06:38:42.974Z,3.30
2022-11-18T06:41:12.279Z,2.85
2022-11-18T06:43:43.019Z,3.08
2022-11-18T06:46:35.736Z,3.70
2022-11-18T06:49:05.507Z,3.33
2022-11-18T06:51:34.462Z,3.50
2022-11-18T06:54:09.115Z,3.45
2022-11-18T06:56:40.804Z,3.33
2022-11-18T06:59:10.657Z,3.35
2022-11-18T07:01:42.276Z,3.35
2022-11-18T07:04:11.658Z,3.67
2022-11-18T07:06:40.880Z,3.47
2022-11-18T07:09:09.818Z,3.53
2022-11-18T07:11:41.495Z,2.20
2022-11-18T07:14:11.854Z,2.70
2022-11-18T07:16:41.159Z,2.92
2022-11-18T07:19:12.615Z,2.97
2022-11-18T07:21:47.445Z,2.55
2022-11-18T07:24:17.591Z,3.50
2022-11-18T07:26:46.846Z,3.70
2022-11-18T07:29:16.179Z,2.97
2022-11-18T07:31:45.553Z,2.97
2022-11-18T07:34:17.238Z,2.75
2022-11-18T07:36:46.332Z,3.47
2022-11-18T07:39:15.964Z,3.65
2022-11-18T07:41:45.338Z,2.83
2022-11-18T07:44:14.832Z,2.88
2022-11-18T07:46:43.824Z,2.92
2022-11-18T07:49:13.545Z,3.35
2022-11-18T07:51:43.300Z,3.00
2022-11-18T07:54:14.992Z,3.20
2022-11-18T07:56:44.270Z,3.53
2022-11-18T07:59:13.658Z,3.50
2022-11-18T08:01:42.831Z,2.95
2022-11-18T08:04:13.596Z,2.85
2022-11-18T08:06:42.772Z,2.80
2022-11-18T08:09:12.272Z,3.92
2022-11-18T08:11:42.051Z,4.07
2022-11-18T08:14:10.987Z,3.55
2022-11-18T08:16:40.482Z,3.22
2022-11-18T08:19:09.351Z,2.92
2022-11-18T08:21:38.568Z,2.80
2022-11-18T08:24:12.149Z,2.55
2022-11-18T08:26:41.432Z,2.47
2022-11-18T08:29:10.500Z,3.10
2022-11-18T08:31:39.668Z,3.65
2022-11-18T08:34:10.175Z,2.92
2022-11-18T08:36:40.554Z,3.38
2022-11-18T08:39:13.109Z,3.08
2022-11-18T08:41:44.847Z,2.78
2022-11-18T08:44:16.234Z,2.93
2022-11-18T08:46:47.113Z,2.97
2022-11-18T08:49:16.782Z,3.00
2022-11-18T08:51:45.892Z,3.40
2022-11-18T08:54:15.074Z,4.47
2022-11-18T08:56:46.472Z,3.00
2022-11-18T08:59:16.072Z,3.17
2022-11-18T09:01:45.551Z,3.10
2022-11-18T09:04:14.742Z,3.35
2022-11-18T09:06:44.266Z,2.90
2022-11-18T09:09:13.556Z,3.42
2022-11-18T09:11:42.611Z,3.17
2022-11-18T09:15:11.794Z,3.30
2022-11-18T09:17:03.851Z,3.33
2022-11-18T09:19:46.789Z,3.58
2022-11-18T09:22:16.342Z,4.35
2022-11-18T09:24:46.369Z,3.35
2022-11-18T09:27:17.281Z,2.97
2022-11-18T09:29:47.425Z,3.25
2022-11-18T09:32:16.833Z,3.10
2022-11-18T09:34:46.097Z,4.28
2022-11-18T09:37:15.234Z,3.88
2022-11-18T09:39:44.146Z,4.97
2022-11-18T09:42:41.847Z,4.97
2022-11-18T09:45:24.647Z,3.92
2022-11-18T09:47:58.013Z,4.38
2022-11-18T09:50:49.623Z,4.60
2022-11-18T09:53:26.701Z,4.50
2022-11-18T09:55:57.095Z,4.53
2022-11-18T09:58:41.526Z,4.20
2022-11-18T10:01:16.407Z,4.95
2022-11-18T10:03:45.463Z,4.70
2022-11-18T10:06:35.577Z,4.55
2022-11-18T10:09:30.995Z,6.60
2022-11-18T10:12:01.427Z,3.80
2022-11-18T10:14:36.143Z,4.30
2022-11-18T10:17:13.184Z,5.30
2022-11-18T10:19:57.178Z,5.25
2022-11-18T10:22:44.412Z,4.75
2022-11-18T10:25:17.301Z,4.82
2022-11-18T10:27:49.370Z,4.85
2022-11-18T10:30:23.542Z,5.05
2022-11-18T10:33:24.617Z,4.75
2022-11-18T10:36:10.517Z,5.18
2022-11-18T10:38:39.540Z,5.10
2022-11-18T10:41:13.580Z,5.05
2022-11-18T10:43:58.868Z,4.60
2022-11-18T10:46:31.258Z,4.22
2022-11-18T10:49:20.633Z,4.50
2022-11-18T10:52:11.810Z,4.47
2022-11-18T10:54:41.672Z,5.22
2022-11-18T10:57:22.104Z,5.10
2022-11-18T10:59:53.229Z,4.97
2022-11-18T11:02:25.524Z,5.15
2022-11-18T11:04:55.496Z,5.72
2022-11-18T11:07:34.963Z,6.13
2022-11-18T11:10:08.438Z,11.15
2022-11-18T11:12:48.414Z,8.18
2022-11-18T11:15:30.738Z,10.07
2022-11-18T11:18:28.958Z,12.35
2022-11-18T11:20:59.486Z,11.75
2022-11-18T11:23:29.603Z,11.60
2022-11-18T11:29:28.904Z,10.18
2022-11-18T11:32:00.089Z,9.15
2022-11-18T11:34:43.149Z,10.93
2022-11-18T11:37:21.608Z,10.20
2022-11-18T11:40:01.318Z,9.80
2022-11-18T11:42:38.958Z,9.57
2022-11-18T11:45:09.140Z,9.50
2022-11-18T11:47:57.998Z,9.10
2022-11-18T11:51:05.463Z,9.77
2022-11-18T11:53:56.134Z,9.32
2022-11-18T11:56:29.673Z,10.27
2022-11-18T11:59:19.974Z,10.48
2022-11-18T12:01:50.328Z,13.15
2022-11-18T12:04:53.202Z,14.65
2022-11-18T12:07:27.493Z,14.13
2022-11-18T12:10:07.989Z,12.43
2022-11-18T12:13:04.799Z,12.85
2022-11-18T12:15:50.209Z,12.38
2022-11-18T12:18:40.288Z,11.65
2022-11-18T12:21:09.830Z,12.15
2022-11-18T12:23:38.792Z,11.98
2022-11-18T12:26:13.072Z,11.32
2022-11-18T12:28:44.084Z,11.52
2022-11-18T12:31:23.187Z,10.45
2022-11-18T12:33:57.278Z,11.05
2022-11-18T12:36:43.503Z,12.05
2022-11-18T12:39:30.257Z,10.82
2022-11-18T12:42:23.307Z,9.95
2022-11-18T12:47:44.436Z,10.90
2022-11-18T12:50:17.980Z,10.40
2022-11-18T12:52:50.802Z,10.05
2022-11-18T12:55:27.255Z,10.35
2022-11-18T12:57:56.692Z,8.82
2022-11-18T13:00:27.333Z,9.18
2022-11-18T13:02:59.494Z,8.77
2022-11-18T13:05:37.127Z,8.88
2022-11-18T13:08:17.692Z,8.70
2022-11-18T13:10:54.752Z,8.95
2022-11-18T13:13:34.163Z,9.27
2022-11-18T13:16:38.249Z,8.55
2022-11-18T13:19:08.570Z,9.15
2022-11-18T13:22:00.195Z,9.80
2022-11-18T13:24:29.667Z,9.40
2022-11-18T13:27:00.778Z,9.40
2022-11-18T13:29:38.704Z,10.10
2022-11-18T13:32:12.492Z,9.20
2022-11-18T13:35:00.113Z,9.27
2022-11-18T13:37:32.351Z,9.32
2022-11-18T13:40:01.942Z,9.85
2022-11-18T13:42:34.099Z,9.13
2022-11-18T13:45:05.239Z,9.25
2022-11-18T13:47:38.402Z,9.77
2022-11-18T13:50:26.812Z,8.93
2022-11-18T13:53:04.081Z,9.55
2022-11-18T13:55:36.943Z,9.18
